Time;durP1;ratioP1;P1;durP2;ratioP2;P2;SDS_P1;SDS_P2;PMS_P1;PMS_P2;Temp;Humidity;BMP_temperature;BMP_pressure;BME280_temperature;BME280_humidity;BME280_pressure;Samples;Min_cycle;Max_cycle;Signal;HPM_P1;HPM_P2
2023/08/14 00:01:06;;;;;;;1.70;1.33;;;21.50;99.90;;;;;;5013242;28;20387;-39
2023/08/14 00:03:31;;;;;;;2.35;1.35;;;21.40;99.90;;;;;;5013448;28;20028;-39
2023/08/14 00:05:57;;;;;;;3.30;1.10;;;21.40;99.90;;;;;;5013466;28;20490;-39
2023/08/14 00:08:23;;;;;;;1.65;1.08;;;21.40;99.90;;;;;;5013383;28;20030;-39
2023/08/14 00:10:48;;;;;;;1.40;1.20;;;21.40;99.90;;;;;;5012951;28;20025;-39
2023/08/14 00:13:18;;;;;;;1.52;1.20;;;21.40;99.90;;;;;;5013242;28;20491;-40
2023/08/14 00:15:44;;;;;;;1.70;1.05;;;21.40;99.90;;;;;;5013230;28;20033;-41
2023/08/14 00:18:10;;;;;;;1.52;1.13;;;21.40;99.90;;;;;;5013284;28;20032;-40
2023/08/14 00:20:35;;;;;;;2.92;1.20;;;21.40;99.90;;;;;;5012739;28;20518;-40
2023/08/14 00:23:01;;;;;;;2.17;1.30;;;21.40;99.90;;;;;;5013031;28;20022;-40
2023/08/14 00:25:26;;;;;;;1.65;1.25;;;21.40;99.90;;;;;;5012956;28;20049;-40
2023/08/14 00:27:53;;;;;;;4.28;1.58;;;21.40;99.90;;;;;;5013041;28;20466;-39
2023/08/14 00:30:19;;;;;;;1.98;1.30;;;21.40;99.90;;;;;;5012564;28;20041;-40
2023/08/14 00:32:45;;;;;;;4.60;1.40;;;21.40;99.90;;;;;;5012931;28;20054;-40
2023/08/14 00:35:10;;;;;;;2.53;1.45;;;21.40;99.90;;;;;;5012905;28;20534;-39
2023/08/14 00:37:41;;;;;;;1.95;1.10;;;21.40;99.90;;;;;;4995013;28;20026;-38
2023/08/14 00:40:12;;;;;;;3.22;1.17;;;21.40;99.90;;;;;;5012133;28;20030;-42
2023/08/14 00:42:39;;;;;;;4.88;1.30;;;21.40;99.90;;;;;;5012767;28;20037;-41
2023/08/14 00:45:06;;;;;;;2.40;1.17;;;21.40;99.90;;;;;;5013066;28;20080;-44
2023/08/14 00:47:37;;;;;;;3.95;1.10;;;21.40;99.90;;;;;;5012828;28;20033;-42
2023/08/14 00:50:10;;;;;;;3.35;1.42;;;21.40;99.90;;;;;;5012406;28;20471;-39
2023/08/14 00:52:44;;;;;;;6.10;1.50;;;21.40;99.90;;;;;;5012556;28;20379;-40
2023/08/14 00:55:15;;;;;;;;;;;21.40;99.90;;;;;;5012999;28;20030;-40
2023/08/14 00:57:40;;;;;;;3.70;1.10;;;21.40;99.90;;;;;;5012502;28;20043;-40
2023/08/14 01:00:07;;;;;;;4.03;1.30;;;21.40;99.90;;;;;;5012473;28;20116;-42
2023/08/14 01:02:34;;;;;;;2.75;1.50;;;21.40;99.90;;;;;;5012254;28;20033;-39
2023/08/14 01:05:00;;;;;;;1.65;1.20;;;21.40;99.90;;;;;;5012334;28;20087;-42
2023/08/14 01:07:26;;;;;;;2.88;1.15;;;21.40;99.90;;;;;;5012405;28;20365;-36
2023/08/14 01:09:52;;;;;;;4.63;1.30;;;21.40;99.90;;;;;;5012028;28;20025;-42
2023/08/14 01:12:38;;;;;;;2.55;1.30;;;21.40;99.90;;;;;;5012296;28;20545;-44
2023/08/14 01:15:09;;;;;;;4.15;1.30;;;21.40;99.90;;;;;;5012273;28;20057;-44
2023/08/14 01:17:37;;;;;;;1.38;1.10;;;21.40;99.90;;;;;;5012167;28;20495;-41
2023/08/14 01:20:04;;;;;;;2.17;1.15;;;21.40;99.90;;;;;;5011775;28;20395;-39
2023/08/14 01:22:40;;;;;;;3.75;1.33;;;21.40;99.90;;;;;;5012140;28;20041;-39
2023/08/14 01:25:27;;;;;;;3.65;1.20;;;21.40;99.90;;;;;;5012092;28;20480;-40
2023/08/14 01:27:55;;;;;;;1.40;1.13;;;21.40;99.90;;;;;;5011974;28;20422;-40
2023/08/14 01:30:23;;;;;;;3.38;1.35;;;21.40;99.90;;;;;;5012197;28;20061;-41
2023/08/14 01:32:50;;;;;;;2.35;1.25;;;21.40;99.90;;;;;;5012182;28;20293;-36
2023/08/14 01:35:20;;;;;;;2.85;1.40;;;21.40;99.90;;;;;;5011923;28;20068;-39
2023/08/14 01:38:11;;;;;;;4.28;1.35;;;21.40;99.90;;;;;;5011887;28;20034;-39
2023/08/14 01:40:44;;;;;;;1.85;1.20;;;21.40;99.90;;;;;;5011537;28;20029;-40
2023/08/14 01:43:26;;;;;;;2.70;1.15;;;21.40;99.90;;;;;;5011832;28;20025;-41
2023/08/14 01:45:54;;;;;;;2.53;1.48;;;21.40;99.90;;;;;;5011798;28;20044;-37
2023/08/14 01:48:22;;;;;;;2.17;1.40;;;21.40;99.90;;;;;;5011745;28;20029;-36
2023/08/14 01:50:50;;;;;;;1.60;1.10;;;21.40;99.90;;;;;;5010419;28;20025;-43
2023/08/14 01:53:17;;;;;;;2.83;1.30;;;21.40;99.90;;;;;;5011774;28;20061;-36
2023/08/14 01:55:43;;;;;;;2.00;1.27;;;21.40;99.90;;;;;;5011638;28;20450;-37
2023/08/14 01:58:08;;;;;;;2.50;1.30;;;21.40;99.90;;;;;;5011582;28;20492;-40
2023/08/14 02:00:34;;;;;;;3.38;1.20;;;21.40;99.90;;;;;;5011204;28;20034;-40
2023/08/14 02:03:00;;;;;;;4.53;1.50;;;21.40;99.90;;;;;;5012001;28;20101;-41
2023/08/14 02:05:26;;;;;;;1.90;1.27;;;21.40;99.90;;;;;;5011489;28;20026;-40
2023/08/14 02:07:52;;;;;;;1.30;1.20;;;21.40;99.90;;;;;;4993897;28;20022;-37
2023/08/14 02:10:17;;;;;;;2.28;1.27;;;21.30;99.90;;;;;;5011190;28;20030;-40
2023/08/14 02:12:43;;;;;;;3.50;1.20;;;21.40;99.90;;;;;;5011440;28;20487;-38
2023/08/14 02:15:09;;;;;;;1.75;1.40;;;21.30;99.90;;;;;;5011481;28;20038;-37
2023/08/14 02:17:35;;;;;;;2.47;1.30;;;21.40;99.90;;;;;;5011461;28;20034;-45
2023/08/14 02:20:00;;;;;;;1.77;1.25;;;21.40;99.90;;;;;;5011481;28;20438;-37
2023/08/14 02:22:26;;;;;;;2.47;1.48;;;21.30;99.90;;;;;;5011528;28;20048;-42
2023/08/14 02:24:52;;;;;;;2.25;1.52;;;21.40;99.90;;;;;;5011511;28;20109;-40
2023/08/14 02:27:18;;;;;;;3.45;1.23;;;21.40;99.90;;;;;;5011537;28;20050;-42
2023/08/14 02:29:44;;;;;;;2.22;1.50;;;21.30;99.90;;;;;;5011042;28;20068;-40
2023/08/14 02:32:10;;;;;;;1.70;1.17;;;21.40;99.90;;;;;;5011301;28;20076;-41
2023/08/14 02:34:50;;;;;;;2.20;1.42;;;21.40;99.90;;;;;;5011271;28;20499;-43
2023/08/14 02:37:18;;;;;;;2.03;1.50;;;21.30;99.90;;;;;;5011265;28;20037;-45
2023/08/14 02:39:44;;;;;;;3.65;1.50;;;21.40;99.90;;;;;;5010880;28;20030;-46
2023/08/14 02:42:10;;;;;;;4.22;1.70;;;21.30;99.90;;;;;;5011252;28;20375;-42
2023/08/14 02:44:36;;;;;;;1.33;1.20;;;21.40;99.90;;;;;;5011288;28;20496;-42
2023/08/14 02:47:03;;;;;;;3.97;1.60;;;21.30;99.90;;;;;;5011079;28;20041;-44
2023/08/14 02:49:29;;;;;;;2.45;1.25;;;21.30;99.90;;;;;;5011036;28;20065;-43
2023/08/14 02:51:55;;;;;;;1.90;1.40;;;21.30;99.90;;;;;;5011193;28;20049;-40
2023/08/14 02:54:21;;;;;;;2.10;1.33;;;21.30;99.90;;;;;;5011063;28;20030;-41
2023/08/14 02:56:47;;;;;;;2.45;1.40;;;21.30;99.90;;;;;;5011471;28;20018;-40
2023/08/14 02:59:13;;;;;;;3.58;1.58;;;21.30;99.90;;;;;;5010775;28;20026;-40
2023/08/14 03:01:39;;;;;;;3.03;1.63;;;21.30;99.90;;;;;;4994313;28;20037;-42
2023/08/14 03:04:05;;;;;;;2.53;1.42;;;21.30;99.90;;;;;;5014845;28;20042;-39
2023/08/14 03:06:31;;;;;;;1.70;1.30;;;21.30;99.90;;;;;;5014631;28;20045;-43
2023/08/14 03:08:58;;;;;;;1.50;1.30;;;21.30;99.90;;;;;;5014408;28;20025;-40
2023/08/14 03:11:24;;;;;;;2.60;1.60;;;21.30;99.90;;;;;;5014513;28;20025;-40
2023/08/14 03:13:49;;;;;;;3.17;1.20;;;21.30;99.90;;;;;;5014413;28;20018;-40
2023/08/14 03:16:15;;;;;;;2.45;1.33;;;21.30;99.90;;;;;;5014346;28;20045;-37
2023/08/14 03:18:41;;;;;;;4.70;1.50;;;21.30;99.90;;;;;;5014347;28;20021;-40
2023/08/14 03:21:08;;;;;;;1.50;1.10;;;21.30;99.90;;;;;;5014158;28;20034;-39
2023/08/14 03:23:37;;;;;;;2.25;1.30;;;21.30;99.90;;;;;;5014302;28;20072;-39
2023/08/14 03:26:04;;;;;;;2.50;1.48;;;21.30;99.90;;;;;;5014240;28;20017;-40
2023/08/14 03:28:30;;;;;;;1.65;1.20;;;21.30;99.90;;;;;;5014135;28;20483;-39
2023/08/14 03:30:56;;;;;;;2.83;1.50;;;21.30;99.90;;;;;;5013720;28;20037;-43
2023/08/14 03:33:21;;;;;;;1.77;1.13;;;21.30;99.90;;;;;;5014070;28;20349;-41
2023/08/14 03:35:47;;;;;;;2.08;1.40;;;21.30;99.90;;;;;;5014060;28;20045;-37
2023/08/14 03:38:13;;;;;;;2.20;1.30;;;21.30;99.90;;;;;;5013996;28;20034;-42
2023/08/14 03:40:38;;;;;;;2.15;1.30;;;21.20;99.90;;;;;;5013636;28;20036;-44
2023/08/14 03:43:04;;;;;;;4.80;1.20;;;21.30;99.90;;;;;;4996181;28;20026;-40
2023/08/14 03:45:30;;;;;;;1.73;1.10;;;21.30;99.90;;;;;;5013859;28;20506;-41
2023/08/14 03:47:55;;;;;;;1.52;1.25;;;21.20;99.90;;;;;;5013891;28;20450;-37
2023/08/14 03:50:21;;;;;;;2.05;1.33;;;21.30;99.90;;;;;;5013483;28;20488;-41
2023/08/14 03:52:48;;;;;;;2.10;1.58;;;21.20;99.90;;;;;;5013854;28;20034;-42
2023/08/14 03:55:13;;;;;;;2.15;1.60;;;21.20;99.90;;;;;;5013774;28;20034;-44
2023/08/14 03:57:39;;;;;;;3.85;1.35;;;21.20;99.90;;;;;;5013728;28;20387;-38
2023/08/14 04:00:06;;;;;;;3.42;1.27;;;21.20;99.90;;;;;;5013383;28;20108;-44
2023/08/14 04:02:32;;;;;;;2.90;1.30;;;21.20;99.90;;;;;;5013704;28;20029;-39
2023/08/14 04:04:58;;;;;;;3.88;1.30;;;21.20;99.90;;;;;;5013366;28;20034;-42
2023/08/14 04:07:23;;;;;;;2.45;1.23;;;21.20;99.90;;;;;;5013467;28;20026;-38
2023/08/14 04:09:49;;;;;;;2.13;1.30;;;21.20;99.90;;;;;;5013167;28;20045;-40
2023/08/14 04:12:14;;;;;;;1.83;1.40;;;21.20;99.90;;;;;;5013285;28;20079;-43
2023/08/14 04:14:40;;;;;;;1.35;1.25;;;21.20;99.90;;;;;;5012365;28;20029;-40
2023/08/14 04:17:06;;;;;;;2.67;1.67;;;21.20;99.90;;;;;;5013305;28;20395;-41
2023/08/14 04:19:31;;;;;;;2.28;1.20;;;21.20;99.90;;;;;;5012817;28;20022;-41
2023/08/14 04:21:57;;;;;;;1.75;1.10;;;21.20;99.90;;;;;;5013201;28;20060;-42
2023/08/14 04:24:23;;;;;;;2.25;1.23;;;21.20;99.90;;;;;;5013160;28;20092;-40
2023/08/14 04:26:48;;;;;;;1.52;1.20;;;21.20;99.90;;;;;;5013087;28;20026;-41
2023/08/14 04:29:15;;;;;;;2.40;1.45;;;21.20;99.90;;;;;;5012641;28;20065;-37
2023/08/14 04:31:41;;;;;;;2.00;1.20;;;21.20;99.90;;;;;;5013192;28;20112;-40
2023/08/14 04:34:08;;;;;;;2.05;1.10;;;21.20;99.90;;;;;;5012938;28;20109;-38
2023/08/14 04:36:35;;;;;;;1.83;1.33;;;21.20;99.90;;;;;;5013128;28;20030;-37
2023/08/14 04:39:01;;;;;;;2.13;1.33;;;21.20;99.90;;;;;;5012648;28;20037;-39
2023/08/14 04:41:27;;;;;;;1.65;1.20;;;21.20;99.90;;;;;;5012644;28;20461;-40
2023/08/14 04:43:54;;;;;;;1.38;1.20;;;21.20;99.90;;;;;;5012833;28;20101;-39
2023/08/14 04:46:32;;;;;;;4.13;1.20;;;21.20;99.90;;;;;;5012655;28;20026;-40
2023/08/14 04:48:58;;;;;;;1.73;1.13;;;21.20;99.90;;;;;;5012417;28;20030;-39
2023/08/14 04:51:24;;;;;;;2.53;1.27;;;21.20;99.90;;;;;;5012664;28;20030;-41
2023/08/14 04:53:49;;;;;;;4.43;1.20;;;21.20;99.90;;;;;;5012591;28;20076;-37
2023/08/14 04:56:15;;;;;;;3.67;1.25;;;21.10;99.90;;;;;;5012544;28;20034;-38
2023/08/14 04:58:41;;;;;;;7.85;1.50;;;21.00;99.90;;;;;;5012543;28;20026;-42
2023/08/14 05:01:06;;;;;;;4.47;1.35;;;21.00;99.90;;;;;;5012311;28;20026;-40
2023/08/14 05:03:32;;;;;;;4.93;1.50;;;21.00;99.90;;;;;;5012435;28;20025;-41
2023/08/14 05:05:57;;;;;;;2.53;1.55;;;21.00;99.90;;;;;;5012433;28;20365;-39
2023/08/14 05:08:23;;;;;;;3.42;1.40;;;21.00;99.90;;;;;;5012308;28;20022;-38
2023/08/14 05:10:50;;;;;;;3.17;1.23;;;21.00;99.90;;;;;;5011990;28;20052;-42
2023/08/14 05:13:16;;;;;;;5.13;1.52;;;21.00;99.90;;;;;;5012312;28;20033;-39
2023/08/14 05:15:42;;;;;;;6.03;1.40;;;21.00;99.90;;;;;;5012217;28;20033;-39
2023/08/14 05:18:08;;;;;;;7.03;1.23;;;21.00;99.90;;;;;;5012179;28;20034;-36
2023/08/14 05:20:34;;;;;;;2.65;1.20;;;21.10;99.90;;;;;;5011719;28;20368;-39
2023/08/14 05:23:00;;;;;;;1.95;1.40;;;21.10;99.90;;;;;;5012092;28;20071;-36
2023/08/14 05:25:25;;;;;;;4.75;1.13;;;21.10;99.90;;;;;;5011764;28;20022;-38
2023/08/14 05:27:51;;;;;;;4.13;1.42;;;21.10;99.90;;;;;;5012083;28;20491;-42
2023/08/14 05:30:16;;;;;;;3.42;1.50;;;21.10;99.90;;;;;;5011572;28;20087;-42
2023/08/14 05:32:46;;;;;;;1.85;1.27;;;21.10;99.90;;;;;;5011862;28;20022;-41
2023/08/14 05:35:12;;;;;;;2.85;1.17;;;21.10;99.90;;;;;;5011960;28;20117;-39
2023/08/14 05:37:39;;;;;;;4.47;1.20;;;21.10;99.90;;;;;;5011773;28;20245;-40
2023/08/14 05:40:05;;;;;;;2.95;1.23;;;21.10;99.90;;;;;;5011774;28;20464;-39
2023/08/14 05:42:31;;;;;;;4.70;1.50;;;21.10;99.90;;;;;;5011706;28;20422;-41
2023/08/14 05:44:57;;;;;;;3.28;1.13;;;21.10;99.90;;;;;;5011776;28;20072;-42
2023/08/14 05:47:22;;;;;;;1.65;1.02;;;21.10;99.90;;;;;;5011698;28;20076;-41
2023/08/14 05:49:48;;;;;;;2.38;1.10;;;21.10;99.90;;;;;;5011454;28;20475;-39
2023/08/14 05:52:14;;;;;;;2.70;1.50;;;21.10;99.90;;;;;;5011580;28;20034;-37
2023/08/14 05:54:40;;;;;;;2.10;1.10;;;21.10;99.90;;;;;;5011592;28;20115;-39
2023/08/14 05:57:05;;;;;;;1.65;1.23;;;21.10;99.90;;;;;;5011639;28;20022;-39
2023/08/14 05:59:32;;;;;;;2.67;1.15;;;21.10;99.90;;;;;;4993679;28;20125;-39
2023/08/14 06:01:58;;;;;;;2.38;1.10;;;21.10;99.90;;;;;;5011566;28;20022;-39
2023/08/14 06:04:24;;;;;;;2.95;0.98;;;21.10;99.90;;;;;;5011542;28;20075;-43
2023/08/14 06:06:50;;;;;;;3.72;1.00;;;21.10;99.90;;;;;;5011449;28;20498;-37
2023/08/14 06:09:17;;;;;;;1.67;1.10;;;21.10;99.90;;;;;;5011201;28;20038;-41
2023/08/14 06:11:43;;;;;;;1.42;0.90;;;21.10;99.90;;;;;;5011560;28;20022;-43
2023/08/14 06:14:08;;;;;;;2.75;1.33;;;21.10;99.90;;;;;;5011489;28;20030;-41
2023/08/14 06:16:34;;;;;;;3.58;1.15;;;21.20;99.90;;;;;;5011474;28;20033;-40
2023/08/14 06:19:00;;;;;;;1.40;1.00;;;21.10;99.90;;;;;;5011201;28;20113;-40
2023/08/14 06:21:25;;;;;;;3.35;1.20;;;21.10;99.90;;;;;;5012779;28;20514;-40
2023/08/14 06:23:51;;;;;;;2.17;1.00;;;21.20;99.90;;;;;;5011412;28;20030;-42
2023/08/14 06:26:19;;;;;;;1.65;1.00;;;21.20;99.90;;;;;;4994839;28;20084;-41
2023/08/14 06:28:45;;;;;;;2.45;1.20;;;21.10;99.90;;;;;;5011191;28;20033;-41
2023/08/14 06:31:11;;;;;;;3.53;1.08;;;21.20;99.90;;;;;;5011104;28;20033;-41
2023/08/14 06:33:36;;;;;;;1.65;1.08;;;21.20;99.90;;;;;;5011236;28;20483;-41
2023/08/14 06:36:02;;;;;;;2.60;1.23;;;21.10;99.90;;;;;;5011342;28;20041;-40
2023/08/14 06:38:27;;;;;;;2.22;1.05;;;21.10;99.90;;;;;;5015117;28;20508;-39
2023/08/14 06:40:53;;;;;;;1.55;1.00;;;21.20;99.90;;;;;;5014800;28;20022;-37
2023/08/14 06:43:20;;;;;;;2.70;1.08;;;21.20;99.90;;;;;;5015042;28;20033;-44
2023/08/14 06:45:47;;;;;;;1.75;0.90;;;21.20;99.90;;;;;;5014982;28;20022;-44
2023/08/14 06:48:14;;;;;;;2.17;1.13;;;21.10;99.90;;;;;;5015050;28;20021;-42
2023/08/14 06:50:39;;;;;;;2.72;0.90;;;21.20;99.90;;;;;;5014541;28;20101;-40
2023/08/14 06:53:05;;;;;;;3.05;1.08;;;21.20;99.90;;;;;;5014862;28;20105;-40
2023/08/14 06:55:30;;;;;;;2.17;1.17;;;21.20;99.90;;;;;;5014798;28;20132;-40
2023/08/14 06:57:56;;;;;;;3.53;1.30;;;21.20;99.90;;;;;;5014786;28;20041;-39
2023/08/14 07:00:22;;;;;;;1.27;0.82;;;21.20;99.90;;;;;;5014343;28;20022;-39
2023/08/14 07:02:47;;;;;;;2.33;1.10;;;21.20;99.90;;;;;;5014668;28;20180;-41
2023/08/14 07:05:13;;;;;;;3.20;1.00;;;21.20;99.90;;;;;;5014592;28;20018;-40
2023/08/14 07:07:39;;;;;;;2.60;1.10;;;21.20;99.90;;;;;;5014637;28;20030;-41
2023/08/14 07:10:06;;;;;;;2.85;1.00;;;21.20;99.90;;;;;;5014265;28;20033;-43
2023/08/14 07:12:32;;;;;;;3.28;1.10;;;21.20;99.90;;;;;;5014450;28;20059;-39
2023/08/14 07:15:00;;;;;;;2.75;1.10;;;21.20;99.90;;;;;;5014562;28;20108;-37
2023/08/14 07:17:26;;;;;;;1.33;1.00;;;21.20;99.90;;;;;;5014447;28;20602;-42
2023/08/14 07:19:52;;;;;;;2.38;1.20;;;21.20;99.90;;;;;;5013932;28;20062;-42
2023/08/14 07:22:17;;;;;;;2.80;1.13;;;21.20;99.90;;;;;;4996781;28;20107;-44
2023/08/14 07:24:43;;;;;;;2.45;1.17;;;21.20;99.90;;;;;;5014324;28;20022;-42
2023/08/14 07:27:09;;;;;;;1.20;0.88;;;21.20;99.90;;;;;;5014308;28;20022;-39
2023/08/14 07:29:35;;;;;;;2.20;1.00;;;21.30;99.90;;;;;;4996775;28;20041;-38
2023/08/14 07:32:00;;;;;;;1.75;0.90;;;21.20;99.90;;;;;;5014198;28;20545;-41
2023/08/14 07:34:26;;;;;;;2.03;0.95;;;21.30;99.90;;;;;;5013998;28;20032;-44
2023/08/14 07:36:52;;;;;;;1.70;1.15;;;21.30;99.90;;;;;;5014041;28;20050;-39
2023/08/14 07:39:17;;;;;;;1.52;1.02;;;21.30;99.90;;;;;;5013751;28;20476;-39
2023/08/14 07:41:43;;;;;;;1.30;0.85;;;21.30;99.90;;;;;;5013992;28;20026;-41
2023/08/14 07:44:08;;;;;;;1.70;1.00;;;21.30;99.90;;;;;;5013878;28;20439;-41
2023/08/14 07:46:34;;;;;;;1.63;1.10;;;21.30;99.90;;;;;;5013859;28;20022;-36
2023/08/14 07:49:00;;;;;;;2.38;1.10;;;21.30;99.90;;;;;;5013392;28;20017;-39
2023/08/14 07:51:25;;;;;;;3.05;1.10;;;21.30;99.90;;;;;;5013828;28;20434;-40
2023/08/14 07:53:52;;;;;;;1.90;1.00;;;21.30;99.90;;;;;;5013794;28;20437;-38
2023/08/14 07:56:25;;;;;;;3.00;1.42;;;21.40;99.90;;;;;;5015408;28;20038;-39
2023/08/14 07:58:51;;;;;;;5.05;1.70;;;21.40;99.90;;;;;;5010384;28;20034;-37
2023/08/14 08:01:17;;;;;;;5.95;1.77;;;21.50;99.90;;;;;;5013428;28;20037;-37
2023/08/14 08:03:43;;;;;;;2.17;1.40;;;21.50;99.90;;;;;;5013891;28;20030;-37
2023/08/14 08:06:09;;;;;;;4.97;1.60;;;21.50;99.90;;;;;;5013493;28;20022;-41
2023/08/14 08:08:35;;;;;;;4.00;1.88;;;21.50;99.90;;;;;;5013462;28;20025;-37
2023/08/14 08:11:00;;;;;;;3.00;1.58;;;21.50;99.90;;;;;;5013155;28;20441;-39
2023/08/14 08:13:26;;;;;;;5.30;1.75;;;21.50;99.90;;;;;;5013405;28;20048;-42
2023/08/14 08:15:52;;;;;;;2.03;1.52;;;21.50;99.90;;;;;;5013334;28;20411;-44
2023/08/14 08:18:17;;;;;;;2.85;1.58;;;21.60;99.90;;;;;;5013241;28;20034;-37
2023/08/14 08:20:43;;;;;;;4.38;1.50;;;21.60;99.90;;;;;;5013044;28;20034;-41
2023/08/14 08:23:09;;;;;;;2.33;1.58;;;21.60;99.90;;;;;;5013244;28;20065;-40
2023/08/14 08:25:34;;;;;;;4.10;1.50;;;21.60;99.90;;;;;;5013195;28;20041;-43
2023/08/14 08:28:00;;;;;;;5.05;1.35;;;21.60;99.90;;;;;;5013125;28;20029;-37
2023/08/14 08:30:25;;;;;;;1.70;1.05;;;21.60;99.90;;;;;;5012634;28;20391;-37
2023/08/14 08:32:51;;;;;;;2.47;1.50;;;21.60;99.90;;;;;;5012930;28;20141;-45
2023/08/14 08:35:16;;;;;;;2.03;1.35;;;21.60;99.90;;;;;;5013000;28;20067;-40
2023/08/14 08:37:42;;;;;;;3.38;1.50;;;21.60;99.90;;;;;;5012926;28;20503;-41
2023/08/14 08:40:08;;;;;;;2.63;1.55;;;21.60;99.90;;;;;;5012552;28;20026;-44
2023/08/14 08:42:34;;;;;;;2.08;1.30;;;21.60;99.90;;;;;;5012738;28;20547;-42
2023/08/14 08:45:04;;;;;;;3.92;1.30;;;21.60;99.90;;;;;;5012743;28;20105;-44
2023/08/14 08:47:33;;;;;;;1.42;1.30;;;21.60;99.90;;;;;;5012646;28;20022;-42
2023/08/14 08:49:59;;;;;;;3.10;1.67;;;21.60;99.90;;;;;;5012386;28;20121;-44
2023/08/14 08:52:25;;;;;;;2.42;1.27;;;21.60;99.90;;;;;;5012667;28;20080;-38
2023/08/14 08:54:51;;;;;;;3.35;1.40;;;21.70;99.90;;;;;;5012598;28;20029;-39
2023/08/14 08:57:18;;;;;;;2.30;1.45;;;21.60;99.90;;;;;;5012673;28;20056;-42
2023/08/14 08:59:44;;;;;;;6.55;1.50;;;21.70;99.90;;;;;;5012020;28;20061;-41
2023/08/14 09:02:10;;;;;;;2.55;1.42;;;21.70;99.90;;;;;;5012448;28;20057;-42
2023/08/14 09:04:36;;;;;;;3.63;1.35;;;21.70;99.90;;;;;;5012486;28;20029;-41
2023/08/14 09:07:01;;;;;;;2.40;1.38;;;21.70;99.90;;;;;;5012739;28;20080;-40
2023/08/14 09:09:27;;;;;;;2.33;1.50;;;21.60;99.90;;;;;;5012056;28;20022;-41
2023/08/14 09:11:52;;;;;;;4.78;1.50;;;21.60;99.90;;;;;;5012343;28;20037;-42
2023/08/14 09:14:18;;;;;;;3.80;1.50;;;21.70;99.90;;;;;;5012156;28;20124;-41
2023/08/14 09:16:44;;;;;;;1.92;1.33;;;21.70;99.90;;;;;;5012232;28;20045;-40
2023/08/14 09:19:13;;;;;;;1.30;1.20;;;21.70;99.90;;;;;;5011931;28;20026;-40
2023/08/14 09:21:42;;;;;;;2.33;1.33;;;21.70;99.90;;;;;;5012040;28;20026;-44
2023/08/14 09:24:10;;;;;;;1.95;1.27;;;21.70;99.90;;;;;;5011976;28;20022;-42
2023/08/14 09:26:35;;;;;;;1.83;1.52;;;21.70;99.90;;;;;;5012244;28;20026;-39
2023/08/14 09:29:02;;;;;;;1.77;1.40;;;21.70;99.90;;;;;;5011565;28;20468;-43
2023/08/14 09:31:30;;;;;;;1.35;1.10;;;21.70;99.90;;;;;;5012010;28;20065;-40
2023/08/14 09:33:56;;;;;;;1.45;1.10;;;21.70;99.90;;;;;;5011896;28;20025;-45
2023/08/14 09:36:22;;;;;;;1.85;1.20;;;21.70;99.90;;;;;;5012117;28;20030;-38
2023/08/14 09:38:51;;;;;;;2.13;1.27;;;21.70;99.90;;;;;;5011635;28;20502;-41
2023/08/14 09:41:19;;;;;;;2.67;1.33;;;21.80;99.90;;;;;;5011712;28;20057;-40
2023/08/14 09:43:45;;;;;;;2.03;1.30;;;21.80;99.90;;;;;;5011736;28;20025;-40
2023/08/14 09:46:14;;;;;;;1.80;1.35;;;21.80;99.90;;;;;;5012075;28;20025;-42
2023/08/14 09:48:43;;;;;;;1.08;0.98;;;21.80;99.90;;;;;;5011871;28;20018;-39
2023/08/14 09:51:11;;;;;;;2.30;1.50;;;21.80;99.90;;;;;;5011538;28;20030;-40
2023/08/14 09:54:07;;;;;;;1.42;1.23;;;21.80;99.90;;;;;;5011894;28;20108;-44
2023/08/14 09:56:34;;;;;;;1.90;1.33;;;21.80;99.90;;;;;;4992716;28;20211;-38
2023/08/14 09:58:59;;;;;;;1.65;1.20;;;21.80;99.90;;;;;;5011378;28;20030;-40
2023/08/14 10:01:26;;;;;;;2.42;1.50;;;21.80;99.90;;;;;;5011659;28;20033;-39
2023/08/14 10:03:53;;;;;;;2.80;1.40;;;21.70;99.90;;;;;;5011612;28;20029;-40
2023/08/14 10:06:21;;;;;;;2.78;1.40;;;21.80;99.90;;;;;;5011550;28;20398;-41
2023/08/14 10:08:51;;;;;;;2.22;1.20;;;21.80;99.90;;;;;;5011233;28;20041;-39
2023/08/14 10:11:17;;;;;;;1.73;1.30;;;21.80;99.90;;;;;;5011923;28;20390;-38
2023/08/14 10:13:50;;;;;;;2.28;1.50;;;21.80;99.90;;;;;;5015564;28;20434;-39
2023/08/14 10:16:26;;;;;;;2.00;1.33;;;21.80;99.90;;;;;;5015629;28;20034;-40
2023/08/14 10:18:55;;;;;;;1.88;1.40;;;21.80;99.90;;;;;;5015391;28;20022;-39
2023/08/14 10:21:24;;;;;;;1.75;1.30;;;21.80;99.90;;;;;;5015669;28;20030;-42
2023/08/14 10:23:51;;;;;;;2.38;1.60;;;21.80;99.90;;;;;;5015701;28;20068;-42
2023/08/14 10:26:17;;;;;;;2.45;1.40;;;21.80;99.90;;;;;;5015477;28;20022;-43
2023/08/14 10:28:43;;;;;;;2.15;1.23;;;21.80;99.90;;;;;;5015245;28;20026;-41
2023/08/14 10:31:10;;;;;;;3.80;1.48;;;21.80;99.90;;;;;;5015031;28;20048;-40
2023/08/14 10:33:37;;;;;;;1.65;1.45;;;21.80;99.90;;;;;;5015175;28;20030;-40
2023/08/14 10:36:02;;;;;;;2.17;1.52;;;21.90;99.90;;;;;;5015212;28;20028;-42
2023/08/14 10:39:04;;;;;;;1.65;1.25;;;21.80;99.90;;;;;;5015126;28;20026;-40
2023/08/14 10:41:34;;;;;;;2.10;1.25;;;21.80;99.90;;;;;;5015137;28;20030;-42
2023/08/14 10:44:05;;;;;;;1.75;1.40;;;21.80;99.90;;;;;;5014924;28;20018;-40
2023/08/14 10:46:33;;;;;;;1.83;1.30;;;21.80;99.90;;;;;;4997451;28;20022;-40
2023/08/14 10:49:00;;;;;;;2.95;1.52;;;21.80;99.90;;;;;;5015065;28;20047;-40
2023/08/14 10:51:31;;;;;;;1.70;1.20;;;21.80;99.90;;;;;;5014974;28;20030;-40
2023/08/14 10:54:23;;;;;;;2.17;1.30;;;21.90;99.90;;;;;;5014905;28;20025;-38
2023/08/14 10:56:57;;;;;;;2.15;1.40;;;21.90;99.90;;;;;;5011146;28;20076;-40
2023/08/14 10:59:29;;;;;;;2.53;1.50;;;21.80;99.90;;;;;;5014594;28;20053;-44
2023/08/14 11:02:05;;;;;;;1.90;1.40;;;21.90;99.90;;;;;;5015105;28;20040;-44
2023/08/14 11:04:32;;;;;;;2.97;1.60;;;21.80;99.90;;;;;;5014746;28;20261;-37
2023/08/14 11:06:57;;;;;;;1.55;1.45;;;21.80;99.90;;;;;;5014537;28;20052;-42
2023/08/14 11:09:26;;;;;;;2.28;1.40;;;21.90;99.90;;;;;;5014443;28;20471;-44
2023/08/14 11:11:56;;;;;;;1.92;1.48;;;21.80;99.90;;;;;;5014661;28;20024;-39
2023/08/14 11:14:22;;;;;;;2.00;1.50;;;21.80;99.90;;;;;;5014502;28;20029;-44
2023/08/14 11:16:49;;;;;;;3.10;1.33;;;21.80;99.90;;;;;;5014562;28;20042;-41
2023/08/14 11:19:18;;;;;;;2.55;1.40;;;21.80;99.90;;;;;;5014163;28;20550;-41
2023/08/14 11:21:48;;;;;;;2.35;1.50;;;21.90;99.90;;;;;;5014192;28;20034;-42
2023/08/14 11:24:14;;;;;;;1.50;1.33;;;21.80;99.90;;;;;;5014317;28;20028;-42
2023/08/14 11:26:39;;;;;;;1.58;1.40;;;21.90;99.90;;;;;;5014280;28;20022;-38
2023/08/14 11:29:05;;;;;;;1.70;1.50;;;21.90;99.90;;;;;;5013899;28;20487;-38
2023/08/14 11:31:31;;;;;;;3.83;1.73;;;21.90;99.90;;;;;;4996626;28;20034;-44
2023/08/14 11:33:56;;;;;;;1.52;1.38;;;21.80;99.90;;;;;;5014008;28;20026;-44
2023/08/14 11:36:22;;;;;;;1.95;1.58;;;21.90;99.90;;;;;;5014129;28;20435;-42
2023/08/14 11:38:50;;;;;;;1.80;1.58;;;21.90;99.90;;;;;;5013822;28;20058;-38
2023/08/14 11:41:15;;;;;;;2.15;1.50;;;21.90;99.90;;;;;;5013980;28;20037;-42
2023/08/14 11:43:41;;;;;;;1.88;1.65;;;21.90;99.90;;;;;;5014312;28;20022;-42
2023/08/14 11:46:07;;;;;;;2.50;1.90;;;21.90;99.90;;;;;;5013925;28;20396;-39
2023/08/14 11:48:32;;;;;;;1.75;1.60;;;21.90;99.90;;;;;;5014295;28;20026;-41
2023/08/14 11:51:02;;;;;;;2.20;1.63;;;21.90;99.90;;;;;;5013662;28;20054;-41
2023/08/14 11:53:28;;;;;;;2.63;1.48;;;21.90;99.90;;;;;;5013902;28;20026;-42
2023/08/14 11:55:55;;;;;;;1.38;1.27;;;21.80;99.90;;;;;;5014057;28;20538;-39
2023/08/14 11:58:21;;;;;;;1.98;1.50;;;21.90;99.90;;;;;;5014105;28;20026;-41
2023/08/14 12:00:50;;;;;;;2.38;1.60;;;21.90;99.90;;;;;;5013432;28;20118;-39
2023/08/14 12:03:17;;;;;;;1.63;1.30;;;21.90;99.90;;;;;;5013528;28;20030;-40
2023/08/14 12:05:45;;;;;;;2.65;1.60;;;21.90;99.90;;;;;;5013614;28;20474;-40
2023/08/14 12:08:12;;;;;;;3.00;1.73;;;21.90;99.90;;;;;;5013575;28;20507;-39
2023/08/14 12:10:39;;;;;;;1.92;1.73;;;21.90;99.90;;;;;;5013193;28;20025;-40
2023/08/14 12:13:05;;;;;;;2.03;1.58;;;21.90;99.90;;;;;;5013411;28;20483;-42
2023/08/14 12:15:31;;;;;;;1.83;1.48;;;21.90;99.90;;;;;;5013424;28;20029;-40
2023/08/14 12:17:57;;;;;;;2.67;1.63;;;21.90;99.90;;;;;;5013190;28;20057;-42
2023/08/14 12:20:22;;;;;;;1.77;1.60;;;21.90;99.90;;;;;;5013059;28;20029;-42
2023/08/14 12:22:49;;;;;;;1.95;1.58;;;21.90;99.90;;;;;;5013238;28;20048;-40
2023/08/14 12:25:21;;;;;;;3.03;1.35;;;21.80;99.90;;;;;;5013151;28;20025;-40
2023/08/14 12:27:47;;;;;;;1.67;1.58;;;21.90;99.90;;;;;;5013261;28;20391;-38
2023/08/14 12:30:14;;;;;;;1.75;1.45;;;21.90;99.90;;;;;;5012548;28;20042;-40
2023/08/14 12:32:46;;;;;;;3.42;1.65;;;21.90;99.90;;;;;;5013015;28;20033;-38
2023/08/14 12:35:12;;;;;;;2.03;1.40;;;21.90;99.90;;;;;;5012453;28;20429;-37
2023/08/14 12:37:37;;;;;;;3.15;1.60;;;21.90;99.90;;;;;;5012910;28;20089;-40
2023/08/14 12:40:08;;;;;;;1.60;1.40;;;21.90;99.90;;;;;;5012537;28;20419;-41
2023/08/14 12:42:35;;;;;;;1.73;1.50;;;21.90;99.90;;;;;;5012989;28;20021;-39
2023/08/14 12:45:01;;;;;;;1.90;1.48;;;21.90;99.90;;;;;;5012685;28;20113;-41
2023/08/14 12:47:27;;;;;;;1.88;1.63;;;21.90;99.90;;;;;;5012815;28;20093;-39